sensor_id;sensor_type;location;lat;lon;timestamp;P1;durP1;ratioP1;P2;durP2;ratioP2
19998;SDS011;10160;50.926;4.374;2023-07-13T00:01:11;12.02;;;2.10;;
19998;SDS011;10160;50.926;4.374;2023-07-13T00:03:38;7.68;;;1.88;;
19998;SDS011;10160;50.926;4.374;2023-07-13T00:06:06;11.15;;;1.80;;
19998;SDS011;10160;50.926;4.374;2023-07-13T00:08:32;8.05;;;1.65;;
19998;SDS011;10160;50.926;4.374;2023-07-13T00:10:59;6.90;;;1.90;;
19998;SDS011;10160;50.926;4.374;2023-07-13T00:13:29;16.85;;;2.22;;
19998;SDS011;10160;50.926;4.374;2023-07-13T00:15:56;12.10;;;2.03;;
19998;SDS011;10160;50.926;4.374;2023-07-13T00:18:23;9.40;;;2.03;;
19998;SDS011;10160;50.926;4.374;2023-07-13T00:20:49;15.30;;;2.17;;
19998;SDS011;10160;50.926;4.374;2023-07-13T00:23:15;12.48;;;2.58;;
19998;SDS011;10160;50.926;4.374;2023-07-13T00:25:42;7.60;;;2.20;;
19998;SDS011;10160;50.926;4.374;2023-07-13T00:28:10;8.63;;;2.35;;
19998;SDS011;10160;50.926;4.374;2023-07-13T00:30:36;13.00;;;2.10;;
19998;SDS011;10160;50.926;4.374;2023-07-13T00:33:01;10.63;;;1.58;;
19998;SDS011;10160;50.926;4.374;2023-07-13T00:35:27;11.10;;;2.22;;
19998;SDS011;10160;50.926;4.374;2023-07-13T00:37:56;10.38;;;2.17;;
19998;SDS011;10160;50.926;4.374;2023-07-13T00:40:22;13.27;;;2.47;;
19998;SDS011;10160;50.926;4.374;2023-07-13T00:42:47;11.45;;;1.92;;
19998;SDS011;10160;50.926;4.374;2023-07-13T00:47:39;11.00;;;1.98;;
19998;SDS011;10160;50.926;4.374;2023-07-13T00:50:06;11.80;;;1.95;;
19998;SDS011;10160;50.926;4.374;2023-07-13T00:52:35;12.52;;;2.22;;
19998;SDS011;10160;50.926;4.374;2023-07-13T00:55:04;7.75;;;2.10;;
19998;SDS011;10160;50.926;4.374;2023-07-13T00:57:30;11.60;;;2.10;;
19998;SDS011;10160;50.926;4.374;2023-07-13T00:59:57;8.65;;;2.42;;
19998;SDS011;10160;50.926;4.374;2023-07-13T01:02:31;12.13;;;1.85;;
19998;SDS011;10160;50.926;4.374;2023-07-13T01:04:58;9.77;;;1.80;;
19998;SDS011;10160;50.926;4.374;2023-07-13T01:07:25;13.05;;;2.42;;
19998;SDS011;10160;50.926;4.374;2023-07-13T01:09:51;5.30;;;1.52;;
19998;SDS011;10160;50.926;4.374;2023-07-13T01:12:16;15.32;;;2.60;;
19998;SDS011;10160;50.926;4.374;2023-07-13T01:14:42;10.00;;;2.40;;
19998;SDS011;10160;50.926;4.374;2023-07-13T01:17:09;9.35;;;2.42;;
19998;SDS011;10160;50.926;4.374;2023-07-13T01:19:43;10.80;;;2.10;;
19998;SDS011;10160;50.926;4.374;2023-07-13T01:22:17;13.88;;;2.80;;
19998;SDS011;10160;50.926;4.374;2023-07-13T01:24:45;12.40;;;2.22;;
19998;SDS011;10160;50.926;4.374;2023-07-13T01:27:13;10.30;;;2.20;;
19998;SDS011;10160;50.926;4.374;2023-07-13T01:29:41;12.57;;;2.47;;
19998;SDS011;10160;50.926;4.374;2023-07-13T01:32:09;11.18;;;2.53;;
19998;SDS011;10160;50.926;4.374;2023-07-13T01:34:36;8.68;;;2.17;;
19998;SDS011;10160;50.926;4.374;2023-07-13T01:37:02;10.30;;;2.72;;
19998;SDS011;10160;50.926;4.374;2023-07-13T01:39:29;18.20;;;2.90;;
19998;SDS011;10160;50.926;4.374;2023-07-13T01:41:55;12.68;;;2.70;;
19998;SDS011;10160;50.926;4.374;2023-07-13T01:44:21;7.38;;;2.17;;
19998;SDS011;10160;50.926;4.374;2023-07-13T01:46:46;9.77;;;1.90;;
19998;SDS011;10160;50.926;4.374;2023-07-13T01:49:12;10.07;;;2.33;;
19998;SDS011;10160;50.926;4.374;2023-07-13T01:51:37;12.43;;;2.58;;
19998;SDS011;10160;50.926;4.374;2023-07-13T01:54:03;14.20;;;2.40;;
19998;SDS011;10160;50.926;4.374;2023-07-13T01:56:32;9.88;;;2.63;;
19998;SDS011;10160;50.926;4.374;2023-07-13T01:58:57;12.02;;;2.45;;
19998;SDS011;10160;50.926;4.374;2023-07-13T02:01:23;9.35;;;2.10;;
19998;SDS011;10160;50.926;4.374;2023-07-13T02:03:48;8.80;;;2.35;;
19998;SDS011;10160;50.926;4.374;2023-07-13T02:06:14;11.50;;;2.85;;
19998;SDS011;10160;50.926;4.374;2023-07-13T02:08:40;16.30;;;2.75;;
19998;SDS011;10160;50.926;4.374;2023-07-13T02:11:07;10.43;;;2.63;;
19998;SDS011;10160;50.926;4.374;2023-07-13T02:13:33;7.97;;;2.08;;
19998;SDS011;10160;50.926;4.374;2023-07-13T02:15:59;13.20;;;2.85;;
19998;SDS011;10160;50.926;4.374;2023-07-13T02:18:25;14.90;;;2.72;;
19998;SDS011;10160;50.926;4.374;2023-07-13T02:20:51;11.05;;;2.50;;
19998;SDS011;10160;50.926;4.374;2023-07-13T02:23:16;12.82;;;2.40;;
19998;SDS011;10160;50.926;4.374;2023-07-13T02:25:42;10.05;;;2.40;;
19998;SDS011;10160;50.926;4.374;2023-07-13T02:28:08;12.38;;;2.45;;
19998;SDS011;10160;50.926;4.374;2023-07-13T02:30:34;14.52;;;3.00;;
19998;SDS011;10160;50.926;4.374;2023-07-13T02:33:00;14.75;;;2.90;;
19998;SDS011;10160;50.926;4.374;2023-07-13T02:35:25;15.40;;;2.60;;
19998;SDS011;10160;50.926;4.374;2023-07-13T02:37:51;12.85;;;2.30;;
19998;SDS011;10160;50.926;4.374;2023-07-13T02:40:17;10.90;;;2.80;;
19998;SDS011;10160;50.926;4.374;2023-07-13T02:42:42;14.50;;;2.47;;
19998;SDS011;10160;50.926;4.374;2023-07-13T02:45:08;10.88;;;2.28;;
19998;SDS011;10160;50.926;4.374;2023-07-13T02:47:35;8.25;;;2.72;;
19998;SDS011;10160;50.926;4.374;2023-07-13T02:50:01;14.18;;;2.92;;
19998;SDS011;10160;50.926;4.374;2023-07-13T02:52:27;14.38;;;3.10;;
19998;SDS011;10160;50.926;4.374;2023-07-13T02:54:53;20.80;;;3.35;;
19998;SDS011;10160;50.926;4.374;2023-07-13T02:57:19;15.30;;;2.95;;
19998;SDS011;10160;50.926;4.374;2023-07-13T02:59:45;16.15;;;2.90;;
19998;SDS011;10160;50.926;4.374;2023-07-13T03:02:11;9.25;;;2.25;;
19998;SDS011;10160;50.926;4.374;2023-07-13T03:04:37;12.57;;;2.88;;
19998;SDS011;10160;50.926;4.374;2023-07-13T03:07:03;13.43;;;2.95;;
19998;SDS011;10160;50.926;4.374;2023-07-13T03:09:29;16.77;;;3.50;;
19998;SDS011;10160;50.926;4.374;2023-07-13T03:11:57;13.98;;;3.10;;
19998;SDS011;10160;50.926;4.374;2023-07-13T03:14:23;14.77;;;2.95;;
19998;SDS011;10160;50.926;4.374;2023-07-13T03:16:49;18.00;;;3.15;;
19998;SDS011;10160;50.926;4.374;2023-07-13T03:19:15;14.05;;;3.13;;
19998;SDS011;10160;50.926;4.374;2023-07-13T03:21:41;10.57;;;2.88;;
19998;SDS011;10160;50.926;4.374;2023-07-13T03:24:06;22.35;;;3.33;;
19998;SDS011;10160;50.926;4.374;2023-07-13T03:26:32;12.88;;;3.72;;
19998;SDS011;10160;50.926;4.374;2023-07-13T03:28:58;11.82;;;2.63;;
19998;SDS011;10160;50.926;4.374;2023-07-13T03:31:28;13.52;;;3.22;;
19998;SDS011;10160;50.926;4.374;2023-07-13T03:33:55;16.15;;;2.78;;
19998;SDS011;10160;50.926;4.374;2023-07-13T03:36:23;13.85;;;3.72;;
19998;SDS011;10160;50.926;4.374;2023-07-13T03:38:52;18.02;;;3.17;;
19998;SDS011;10160;50.926;4.374;2023-07-13T03:41:19;13.95;;;3.42;;
19998;SDS011;10160;50.926;4.374;2023-07-13T03:43:47;14.98;;;3.42;;
19998;SDS011;10160;50.926;4.374;2023-07-13T03:46:13;12.35;;;2.80;;
19998;SDS011;10160;50.926;4.374;2023-07-13T03:48:40;9.57;;;2.95;;
19998;SDS011;10160;50.926;4.374;2023-07-13T03:51:08;13.57;;;3.25;;
19998;SDS011;10160;50.926;4.374;2023-07-13T03:53:35;17.70;;;3.60;;
19998;SDS011;10160;50.926;4.374;2023-07-13T03:56:03;15.25;;;3.28;;
19998;SDS011;10160;50.926;4.374;2023-07-13T03:58:35;13.35;;;2.95;;
19998;SDS011;10160;50.926;4.374;2023-07-13T04:01:06;15.20;;;2.92;;
19998;SDS011;10160;50.926;4.374;2023-07-13T04:03:34;13.02;;;3.17;;
19998;SDS011;10160;50.926;4.374;2023-07-13T04:06:01;10.02;;;2.92;;
19998;SDS011;10160;50.926;4.374;2023-07-13T04:08:33;17.42;;;3.42;;
19998;SDS011;10160;50.926;4.374;2023-07-13T04:11:00;17.73;;;3.63;;
19998;SDS011;10160;50.926;4.374;2023-07-13T04:13:27;15.57;;;3.33;;
19998;SDS011;10160;50.926;4.374;2023-07-13T04:15:53;13.48;;;3.00;;
19998;SDS011;10160;50.926;4.374;2023-07-13T04:18:19;19.13;;;3.38;;
19998;SDS011;10160;50.926;4.374;2023-07-13T04:20:48;16.80;;;3.25;;
19998;SDS011;10160;50.926;4.374;2023-07-13T04:23:15;10.02;;;3.25;;
19998;SDS011;10160;50.926;4.374;2023-07-13T04:25:45;13.25;;;3.33;;
19998;SDS011;10160;50.926;4.374;2023-07-13T04:28:14;18.65;;;3.53;;
19998;SDS011;10160;50.926;4.374;2023-07-13T04:30:40;13.27;;;3.63;;
19998;SDS011;10160;50.926;4.374;2023-07-13T04:33:06;15.68;;;3.50;;
19998;SDS011;10160;50.926;4.374;2023-07-13T04:35:33;13.60;;;3.28;;
19998;SDS011;10160;50.926;4.374;2023-07-13T04:37:59;13.85;;;3.13;;
19998;SDS011;10160;50.926;4.374;2023-07-13T04:40:26;14.95;;;2.92;;
19998;SDS011;10160;50.926;4.374;2023-07-13T04:42:53;15.77;;;3.78;;
19998;SDS011;10160;50.926;4.374;2023-07-13T04:45:19;17.35;;;3.50;;
19998;SDS011;10160;50.926;4.374;2023-07-13T04:47:44;15.85;;;4.03;;
19998;SDS011;10160;50.926;4.374;2023-07-13T04:50:12;17.98;;;3.35;;
19998;SDS011;10160;50.926;4.374;2023-07-13T04:52:43;15.05;;;3.58;;
19998;SDS011;10160;50.926;4.374;2023-07-13T04:55:09;11.98;;;3.53;;
19998;SDS011;10160;50.926;4.374;2023-07-13T04:57:35;14.82;;;3.33;;
19998;SDS011;10160;50.926;4.374;2023-07-13T05:00:01;18.02;;;3.30;;
19998;SDS011;10160;50.926;4.374;2023-07-13T05:02:31;12.98;;;2.78;;
19998;SDS011;10160;50.926;4.374;2023-07-13T05:04:58;19.25;;;3.95;;
19998;SDS011;10160;50.926;4.374;2023-07-13T05:07:25;19.02;;;3.63;;
19998;SDS011;10160;50.926;4.374;2023-07-13T05:09:51;15.20;;;3.83;;
19998;SDS011;10160;50.926;4.374;2023-07-13T05:12:17;19.98;;;4.35;;
19998;SDS011;10160;50.926;4.374;2023-07-13T05:14:43;11.48;;;3.03;;
19998;SDS011;10160;50.926;4.374;2023-07-13T05:17:09;18.33;;;3.63;;
19998;SDS011;10160;50.926;4.374;2023-07-13T05:19:35;14.90;;;3.95;;
19998;SDS011;10160;50.926;4.374;2023-07-13T05:22:01;21.52;;;3.88;;
19998;SDS011;10160;50.926;4.374;2023-07-13T05:24:28;14.48;;;3.15;;
19998;SDS011;10160;50.926;4.374;2023-07-13T05:26:54;18.80;;;3.65;;
19998;SDS011;10160;50.926;4.374;2023-07-13T05:29:20;16.83;;;4.18;;
19998;SDS011;10160;50.926;4.374;2023-07-13T05:31:46;16.98;;;4.07;;
19998;SDS011;10160;50.926;4.374;2023-07-13T05:34:12;15.52;;;3.70;;
19998;SDS011;10160;50.926;4.374;2023-07-13T05:36:38;15.45;;;3.20;;
19998;SDS011;10160;50.926;4.374;2023-07-13T05:39:03;15.63;;;3.88;;
19998;SDS011;10160;50.926;4.374;2023-07-13T05:41:29;14.88;;;3.28;;
19998;SDS011;10160;50.926;4.374;2023-07-13T05:43:55;14.90;;;3.75;;
19998;SDS011;10160;50.926;4.374;2023-07-13T05:46:21;15.30;;;3.22;;
19998;SDS011;10160;50.926;4.374;2023-07-13T05:48:47;23.25;;;4.35;;
19998;SDS011;10160;50.926;4.374;2023-07-13T05:51:13;19.27;;;3.90;;
19998;SDS011;10160;50.926;4.374;2023-07-13T05:53:39;14.70;;;4.03;;
19998;SDS011;10160;50.926;4.374;2023-07-13T05:56:05;17.98;;;4.22;;
19998;SDS011;10160;50.926;4.374;2023-07-13T05:58:30;12.68;;;3.47;;
19998;SDS011;10160;50.926;4.374;2023-07-13T06:01:00;15.30;;;3.15;;
19998;SDS011;10160;50.926;4.374;2023-07-13T06:03:28;24.90;;;3.88;;
19998;SDS011;10160;50.926;4.374;2023-07-13T06:05:54;20.60;;;3.83;;
19998;SDS011;10160;50.926;4.374;2023-07-13T06:08:20;18.45;;;3.85;;
19998;SDS011;10160;50.926;4.374;2023-07-13T06:10:45;22.95;;;4.32;;
19998;SDS011;10160;50.926;4.374;2023-07-13T06:13:11;18.33;;;3.60;;
19998;SDS011;10160;50.926;4.374;2023-07-13T06:15:37;19.10;;;3.70;;
19998;SDS011;10160;50.926;4.374;2023-07-13T06:18:02;21.55;;;4.07;;
19998;SDS011;10160;50.926;4.374;2023-07-13T06:20:28;23.02;;;4.05;;
19998;SDS011;10160;50.926;4.374;2023-07-13T06:22:54;15.50;;;3.42;;
19998;SDS011;10160;50.926;4.374;2023-07-13T06:25:20;16.52;;;4.22;;
19998;SDS011;10160;50.926;4.374;2023-07-13T06:27:46;15.57;;;3.50;;
19998;SDS011;10160;50.926;4.374;2023-07-13T06:30:11;18.20;;;3.45;;
19998;SDS011;10160;50.926;4.374;2023-07-13T06:32:37;20.58;;;4.30;;
19998;SDS011;10160;50.926;4.374;2023-07-13T06:35:03;16.92;;;3.40;;
19998;SDS011;10160;50.926;4.374;2023-07-13T06:37:29;18.48;;;3.90;;
19998;SDS011;10160;50.926;4.374;2023-07-13T06:39:55;22.70;;;5.80;;
19998;SDS011;10160;50.926;4.374;2023-07-13T06:42:21;12.25;;;3.40;;
19998;SDS011;10160;50.926;4.374;2023-07-13T06:44:46;22.60;;;4.35;;
19998;SDS011;10160;50.926;4.374;2023-07-13T06:47:12;19.60;;;3.65;;
19998;SDS011;10160;50.926;4.374;2023-07-13T06:49:38;17.58;;;4.13;;
19998;SDS011;10160;50.926;4.374;2023-07-13T06:52:03;19.65;;;4.20;;
19998;SDS011;10160;50.926;4.374;2023-07-13T06:54:33;18.42;;;4.18;;
19998;SDS011;10160;50.926;4.374;2023-07-13T06:57:00;21.65;;;4.32;;
19998;SDS011;10160;50.926;4.374;2023-07-13T06:59:25;21.60;;;4.50;;
19998;SDS011;10160;50.926;4.374;2023-07-13T07:01:51;13.20;;;4.32;;
19998;SDS011;10160;50.926;4.374;2023-07-13T07:04:16;19.85;;;3.65;;
19998;SDS011;10160;50.926;4.374;2023-07-13T07:06:42;14.98;;;3.95;;
19998;SDS011;10160;50.926;4.374;2023-07-13T07:09:08;15.63;;;3.75;;
19998;SDS011;10160;50.926;4.374;2023-07-13T07:11:34;13.60;;;3.95;;
19998;SDS011;10160;50.926;4.374;2023-07-13T07:13:59;16.38;;;4.30;;
19998;SDS011;10160;50.926;4.374;2023-07-13T07:16:25;12.75;;;3.63;;
19998;SDS011;10160;50.926;4.374;2023-07-13T07:18:51;15.05;;;3.58;;
19998;SDS011;10160;50.926;4.374;2023-07-13T07:21:16;15.32;;;3.65;;
19998;SDS011;10160;50.926;4.374;2023-07-13T07:23:42;18.85;;;4.03;;
19998;SDS011;10160;50.926;4.374;2023-07-13T07:26:08;16.38;;;4.03;;
19998;SDS011;10160;50.926;4.374;2023-07-13T07:28:35;14.95;;;3.45;;
19998;SDS011;10160;50.926;4.374;2023-07-13T07:31:01;17.75;;;3.55;;
19998;SDS011;10160;50.926;4.374;2023-07-13T07:33:27;19.15;;;4.13;;
19998;SDS011;10160;50.926;4.374;2023-07-13T07:35:52;14.68;;;3.25;;
19998;SDS011;10160;50.926;4.374;2023-07-13T07:38:18;13.32;;;3.63;;
19998;SDS011;10160;50.926;4.374;2023-07-13T07:40:44;16.88;;;3.65;;
19998;SDS011;10160;50.926;4.374;2023-07-13T07:43:11;19.38;;;4.38;;
19998;SDS011;10160;50.926;4.374;2023-07-13T07:45:38;17.17;;;3.40;;
19998;SDS011;10160;50.926;4.374;2023-07-13T07:48:04;16.63;;;3.78;;
19998;SDS011;10160;50.926;4.374;2023-07-13T07:50:31;16.98;;;3.45;;
19998;SDS011;10160;50.926;4.374;2023-07-13T07:52:57;17.88;;;3.45;;
19998;SDS011;10160;50.926;4.374;2023-07-13T07:55:23;22.77;;;4.07;;
19998;SDS011;10160;50.926;4.374;2023-07-13T07:57:51;13.38;;;3.08;;
19998;SDS011;10160;50.926;4.374;2023-07-13T08:00:17;14.77;;;3.53;;
19998;SDS011;10160;50.926;4.374;2023-07-13T08:02:43;15.35;;;3.60;;
19998;SDS011;10160;50.926;4.374;2023-07-13T08:05:10;14.95;;;3.63;;
19998;SDS011;10160;50.926;4.374;2023-07-13T08:07:39;14.30;;;3.17;;
19998;SDS011;10160;50.926;4.374;2023-07-13T08:10:05;17.58;;;3.80;;
19998;SDS011;10160;50.926;4.374;2023-07-13T08:12:36;12.10;;;3.85;;
19998;SDS011;10160;50.926;4.374;2023-07-13T08:15:03;14.52;;;3.53;;
19998;SDS011;10160;50.926;4.374;2023-07-13T08:17:29;15.43;;;3.30;;
19998;SDS011;10160;50.926;4.374;2023-07-13T08:19:55;18.23;;;4.00;;
19998;SDS011;10160;50.926;4.374;2023-07-13T08:22:21;15.70;;;3.28;;
19998;SDS011;10160;50.926;4.374;2023-07-13T08:24:46;13.50;;;3.60;;
19998;SDS011;10160;50.926;4.374;2023-07-13T08:27:20;11.57;;;2.83;;
19998;SDS011;10160;50.926;4.374;2023-07-13T08:29:47;13.63;;;3.40;;
19998;SDS011;10160;50.926;4.374;2023-07-13T08:32:13;14.98;;;4.00;;
19998;SDS011;10160;50.926;4.374;2023-07-13T08:34:39;12.77;;;3.08;;
19998;SDS011;10160;50.926;4.374;2023-07-13T08:37:05;11.80;;;3.00;;
19998;SDS011;10160;50.926;4.374;2023-07-13T08:39:31;10.48;;;2.88;;
19998;SDS011;10160;50.926;4.374;2023-07-13T08:42:00;11.70;;;3.15;;
19998;SDS011;10160;50.926;4.374;2023-07-13T08:44:36;10.57;;;3.40;;
19998;SDS011;10160;50.926;4.374;2023-07-13T08:47:30;11.27;;;3.00;;
19998;SDS011;10160;50.926;4.374;2023-07-13T08:50:00;15.88;;;3.63;;
19998;SDS011;10160;50.926;4.374;2023-07-13T08:52:38;18.92;;;3.22;;
19998;SDS011;10160;50.926;4.374;2023-07-13T08:55:09;14.20;;;3.35;;
19998;SDS011;10160;50.926;4.374;2023-07-13T08:57:42;12.63;;;2.53;;
19998;SDS011;10160;50.926;4.374;2023-07-13T09:00:11;15.18;;;3.33;;
19998;SDS011;10160;50.926;4.374;2023-07-13T09:02:46;14.90;;;3.20;;
19998;SDS011;10160;50.926;4.374;2023-07-13T09:05:17;8.85;;;2.53;;
19998;SDS011;10160;50.926;4.374;2023-07-13T09:08:02;10.93;;;2.35;;
19998;SDS011;10160;50.926;4.374;2023-07-13T09:13:19;9.48;;;2.85;;
19998;SDS011;10160;50.926;4.374;2023-07-13T09:15:58;15.05;;;2.75;;
19998;SDS011;10160;50.926;4.374;2023-07-13T09:23:29;14.18;;;3.33;;
19998;SDS011;10160;50.926;4.374;2023-07-13T09:25:59;10.55;;;2.65;;
19998;SDS011;10160;50.926;4.374;2023-07-13T09:28:39;9.85;;;3.20;;
19998;SDS011;10160;50.926;4.374;2023-07-13T09:31:23;11.60;;;2.97;;
19998;SDS011;10160;50.926;4.374;2023-07-13T09:34:04;11.85;;;2.28;;
19998;SDS011;10160;50.926;4.374;2023-07-13T09:36:34;9.15;;;1.90;;
19998;SDS011;10160;50.926;4.374;2023-07-13T09:44:17;10.07;;;2.42;;
19998;SDS011;10160;50.926;4.374;2023-07-13T09:46:54;8.70;;;2.28;;
19998;SDS011;10160;50.926;4.374;2023-07-13T09:49:32;9.60;;;2.42;;
19998;SDS011;10160;50.926;4.374;2023-07-13T09:54:33;10.13;;;2.17;;
19998;SDS011;10160;50.926;4.374;2023-07-13T09:57:01;11.25;;;2.65;;
19998;SDS011;10160;50.926;4.374;2023-07-13T09:59:35;8.77;;;2.15;;
19998;SDS011;10160;50.926;4.374;2023-07-13T10:05:03;8.18;;;2.00;;
19998;SDS011;10160;50.926;4.374;2023-07-13T10:07:39;16.13;;;2.67;;
19998;SDS011;10160;50.926;4.374;2023-07-13T10:10:18;13.25;;;2.67;;
19998;SDS011;10160;50.926;4.374;2023-07-13T10:12:47;8.35;;;2.45;;
19998;SDS011;10160;50.926;4.374;2023-07-13T10:15:15;9.45;;;2.28;;
19998;SDS011;10160;50.926;4.374;2023-07-13T10:17:44;11.32;;;2.45;;
19998;SDS011;10160;50.926;4.374;2023-07-13T10:20:11;12.50;;;2.55;;
19998;SDS011;10160;50.926;4.374;2023-07-13T10:22:44;10.27;;;2.42;;
19998;SDS011;10160;50.926;4.374;2023-07-13T10:25:21;8.80;;;2.08;;
19998;SDS011;10160;50.926;4.374;2023-07-13T10:27:53;5.32;;;2.00;;
19998;SDS011;10160;50.926;4.374;2023-07-13T10:30:24;9.48;;;2.05;;
19998;SDS011;10160;50.926;4.374;2023-07-13T10:32:58;7.43;;;1.75;;
19998;SDS011;10160;50.926;4.374;2023-07-13T10:35:27;13.70;;;2.40;;
19998;SDS011;10160;50.926;4.374;2023-07-13T10:37:57;9.07;;;2.47;;
19998;SDS011;10160;50.926;4.374;2023-07-13T10:40:50;11.77;;;2.42;;
19998;SDS011;10160;50.926;4.374;2023-07-13T10:43:29;9.15;;;2.15;;
19998;SDS011;10160;50.926;4.374;2023-07-13T10:46:03;10.98;;;2.65;;
19998;SDS011;10160;50.926;4.374;2023-07-13T10:48:35;11.38;;;3.15;;
19998;SDS011;10160;50.926;4.374;2023-07-13T10:51:03;11.45;;;2.50;;
19998;SDS011;10160;50.926;4.374;2023-07-13T10:53:32;7.57;;;2.25;;
19998;SDS011;10160;50.926;4.374;2023-07-13T10:56:10;9.27;;;2.20;;
19998;SDS011;10160;50.926;4.374;2023-07-13T10:58:45;11.65;;;3.58;;
19998;SDS011;10160;50.926;4.374;2023-07-13T11:01:15;8.77;;;2.92;;
19998;SDS011;10160;50.926;4.374;2023-07-13T11:04:00;11.18;;;3.58;;
19998;SDS011;10160;50.926;4.374;2023-07-13T11:09:00;12.25;;;2.85;;
19998;SDS011;10160;50.926;4.374;2023-07-13T11:11:48;12.48;;;2.92;;
19998;SDS011;10160;50.926;4.374;2023-07-13T11:22:45;11.35;;;2.67;;
19998;SDS011;10160;50.926;4.374;2023-07-13T11:25:24;12.32;;;2.38;;
19998;SDS011;10160;50.926;4.374;2023-07-13T11:30:59;9.35;;;2.30;;
19998;SDS011;10160;50.926;4.374;2023-07-13T11:36:15;7.82;;;1.90;;
19998;SDS011;10160;50.926;4.374;2023-07-13T11:39:12;11.13;;;2.20;;
19998;SDS011;10160;50.926;4.374;2023-07-13T11:41:49;5.47;;;2.05;;
19998;SDS011;10160;50.926;4.374;2023-07-13T11:44:18;9.13;;;2.05;;
19998;SDS011;10160;50.926;4.374;2023-07-13T11:46:49;7.95;;;1.90;;
19998;SDS011;10160;50.926;4.374;2023-07-13T11:49:29;7.72;;;2.08;;
19998;SDS011;10160;50.926;4.374;2023-07-13T11:51:57;12.20;;;2.70;;
19998;SDS011;10160;50.926;4.374;2023-07-13T11:56:58;8.90;;;2.67;;
19998;SDS011;10160;50.926;4.374;2023-07-13T11:59:26;15.77;;;3.45;;
19998;SDS011;10160;50.926;4.374;2023-07-13T12:01:54;13.35;;;3.38;;
19998;SDS011;10160;50.926;4.374;2023-07-13T12:04:25;18.00;;;3.53;;
19998;SDS011;10160;50.926;4.374;2023-07-13T12:06:54;11.05;;;3.58;;
19998;SDS011;10160;50.926;4.374;2023-07-13T12:09:29;10.23;;;3.10;;
19998;SDS011;10160;50.926;4.374;2023-07-13T12:11:56;8.30;;;3.05;;
19998;SDS011;10160;50.926;4.374;2023-07-13T12:14:25;9.63;;;2.70;;
19998;SDS011;10160;50.926;4.374;2023-07-13T12:16:55;5.13;;;2.00;;
19998;SDS011;10160;50.926;4.374;2023-07-13T12:19:25;7.10;;;2.40;;
19998;SDS011;10160;50.926;4.374;2023-07-13T12:21:53;8.63;;;2.22;;
19998;SDS011;10160;50.926;4.374;2023-07-13T12:24:21;7.10;;;2.22;;
19998;SDS011;10160;50.926;4.374;2023-07-13T12:27:23;3.85;;;1.52;;
19998;SDS011;10160;50.926;4.374;2023-07-13T12:30:15;8.52;;;1.80;;
19998;SDS011;10160;50.926;4.374;2023-07-13T12:33:01;8.15;;;1.75;;
19998;SDS011;10160;50.926;4.374;2023-07-13T12:35:38;5.85;;;1.65;;
19998;SDS011;10160;50.926;4.374;2023-07-13T12:38:09;4.28;;;1.55;;
19998;SDS011;10160;50.926;4.374;2023-07-13T12:40:36;5.78;;;1.90;;
19998;SDS011;10160;50.926;4.374;2023-07-13T12:43:05;7.03;;;2.08;;
19998;SDS011;10160;50.926;4.374;2023-07-13T12:45:36;4.68;;;1.60;;
19998;SDS011;10160;50.926;4.374;2023-07-13T12:48:04;4.60;;;1.65;;
19998;SDS011;10160;50.926;4.374;2023-07-13T12:50:39;5.03;;;1.70;;
19998;SDS011;10160;50.926;4.374;2023-07-13T12:53:12;6.43;;;1.38;;
19998;SDS011;10160;50.926;4.374;2023-07-13T12:55:45;7.40;;;1.58;;
19998;SDS011;10160;50.926;4.374;2023-07-13T12:58:25;6.85;;;1.90;;
19998;SDS011;10160;50.926;4.374;2023-07-13T13:00:54;8.60;;;2.67;;
19998;SDS011;10160;50.926;4.374;2023-07-13T13:08:56;7.30;;;2.08;;
19998;SDS011;10160;50.926;4.374;2023-07-13T13:11:26;10.05;;;2.60;;
19998;SDS011;10160;50.926;4.374;2023-07-13T13:13:54;9.50;;;2.45;;
19998;SDS011;10160;50.926;4.374;2023-07-13T13:18:52;7.85;;;2.17;;
19998;SDS011;10160;50.926;4.374;2023-07-13T13:21:20;6.68;;;1.80;;
19998;SDS011;10160;50.926;4.374;2023-07-13T13:23:45;8.25;;;1.88;;
19998;SDS011;10160;50.926;4.374;2023-07-13T13:26:15;5.82;;;2.05;;
19998;SDS011;10160;50.926;4.374;2023-07-13T13:28:41;5.43;;;1.58;;
19998;SDS011;10160;50.926;4.374;2023-07-13T13:31:09;5.45;;;1.90;;
19998;SDS011;10160;50.926;4.374;2023-07-13T13:33:38;4.13;;;1.73;;
19998;SDS011;10160;50.926;4.374;2023-07-13T13:36:18;4.15;;;1.80;;
19998;SDS011;10160;50.926;4.374;2023-07-13T13:38:45;4.75;;;1.80;;
19998;SDS011;10160;50.926;4.374;2023-07-13T13:41:12;4.18;;;1.27;;
19998;SDS011;10160;50.926;4.374;2023-07-13T13:43:40;4.32;;;1.45;;
19998;SDS011;10160;50.926;4.374;2023-07-13T13:46:14;6.53;;;1.90;;
19998;SDS011;10160;50.926;4.374;2023-07-13T13:48:44;4.18;;;1.85;;
19998;SDS011;10160;50.926;4.374;2023-07-13T13:51:14;5.97;;;1.77;;
19998;SDS011;10160;50.926;4.374;2023-07-13T13:53:42;3.42;;;1.30;;
19998;SDS011;10160;50.926;4.374;2023-07-13T13:56:09;8.30;;;1.60;;
19998;SDS011;10160;50.926;4.374;2023-07-13T13:58:34;6.90;;;1.60;;
19998;SDS011;10160;50.926;4.374;2023-07-13T14:01:00;5.75;;;1.48;;
19998;SDS011;10160;50.926;4.374;2023-07-13T14:03:26;8.85;;;1.45;;
19998;SDS011;10160;50.926;4.374;2023-07-13T14:05:53;4.93;;;1.65;;
19998;SDS011;10160;50.926;4.374;2023-07-13T14:08:22;5.40;;;1.30;;
19998;SDS011;10160;50.926;4.374;2023-07-13T14:10:49;4.20;;;1.63;;
19998;SDS011;10160;50.926;4.374;2023-07-13T14:15:47;6.78;;;1.30;;
19998;SDS011;10160;50.926;4.374;2023-07-13T14:18:13;6.68;;;1.77;;
19998;SDS011;10160;50.926;4.374;2023-07-13T14:20:43;6.03;;;1.35;;
19998;SDS011;10160;50.926;4.374;2023-07-13T14:23:10;6.97;;;1.60;;
19998;SDS011;10160;50.926;4.374;2023-07-13T14:25:37;6.82;;;1.92;;
19998;SDS011;10160;50.926;4.374;2023-07-13T14:28:09;7.22;;;1.50;;
19998;SDS011;10160;50.926;4.374;2023-07-13T14:30:41;7.18;;;1.40;;
19998;SDS011;10160;50.926;4.374;2023-07-13T14:33:11;6.72;;;1.42;;
19998;SDS011;10160;50.926;4.374;2023-07-13T14:35:36;8.13;;;1.52;;
19998;SDS011;10160;50.926;4.374;2023-07-13T14:38:03;6.90;;;1.58;;
19998;SDS011;10160;50.926;4.374;2023-07-13T14:40:30;4.85;;;1.40;;
19998;SDS011;10160;50.926;4.374;2023-07-13T14:42:56;5.85;;;1.60;;
19998;SDS011;10160;50.926;4.374;2023-07-13T14:45:23;4.10;;;1.30;;
19998;SDS011;10160;50.926;4.374;2023-07-13T14:47:49;8.27;;;1.52;;
19998;SDS011;10160;50.926;4.374;2023-07-13T14:50:17;11.48;;;1.80;;
19998;SDS011;10160;50.926;4.374;2023-07-13T14:52:45;6.63;;;1.60;;
19998;SDS011;10160;50.926;4.374;2023-07-13T14:55:16;6.10;;;1.70;;
19998;SDS011;10160;50.926;4.374;2023-07-13T14:57:43;6.32;;;1.73;;
19998;SDS011;10160;50.926;4.374;2023-07-13T15:02:40;6.30;;;1.67;;
19998;SDS011;10160;50.926;4.374;2023-07-13T15:05:28;7.90;;;1.25;;
19998;SDS011;10160;50.926;4.374;2023-07-13T15:07:57;7.68;;;2.08;;
19998;SDS011;10160;50.926;4.374;2023-07-13T15:10:26;9.10;;;1.80;;
19998;SDS011;10160;50.926;4.374;2023-07-13T15:15:43;7.95;;;1.73;;
19998;SDS011;10160;50.926;4.374;2023-07-13T15:18:11;4.80;;;1.38;;
19998;SDS011;10160;50.926;4.374;2023-07-13T15:20:39;3.72;;;1.38;;
19998;SDS011;10160;50.926;4.374;2023-07-13T15:23:05;5.15;;;1.50;;
19998;SDS011;10160;50.926;4.374;2023-07-13T15:25:32;7.88;;;1.85;;
19998;SDS011;10160;50.926;4.374;2023-07-13T15:27:58;8.30;;;2.17;;
19998;SDS011;10160;50.926;4.374;2023-07-13T15:30:35;7.45;;;1.60;;
19998;SDS011;10160;50.926;4.374;2023-07-13T15:33:14;6.43;;;1.60;;
19998;SDS011;10160;50.926;4.374;2023-07-13T15:35:50;7.43;;;1.95;;
19998;SDS011;10160;50.926;4.374;2023-07-13T15:38:22;4.63;;;1.67;;
19998;SDS011;10160;50.926;4.374;2023-07-13T15:40:50;6.60;;;1.77;;
19998;SDS011;10160;50.926;4.374;2023-07-13T15:43:18;7.47;;;1.85;;